Time;durP1;ratioP1;P1;durP2;ratioP2;P2;SDS_P1;SDS_P2;PMS_P1;PMS_P2;Temp;Humidity;BMP_temperature;BMP_pressure;BME280_temperature;BME280_humidity;BME280_pressure;Samples;Min_cycle;Max_cycle;Signal;HPM_P1;HPM_P2
2022/09/24 00:00:41;;;;;;;4.57;4.27;;;;;;;13.25;63.08;99821.19;4975155;28;20270;-65
2022/09/24 00:03:08;;;;;;;6.13;3.47;;;;;;;13.19;63.97;99823.84;4974930;28;20729;-65
2022/09/24 00:05:38;;;;;;;3.60;3.40;;;;;;;13.16;64.12;99819.75;4974794;28;20246;-65
2022/09/24 00:08:05;;;;;;;5.87;3.47;;;;;;;13.10;63.67;99809.88;4975141;28;20371;-65
2022/09/24 00:10:32;;;;;;;3.70;3.50;;;;;;;13.09;64.26;99818.91;4974872;28;20199;-65
2022/09/24 00:12:58;;;;;;;3.73;3.43;;;;;;;13.11;63.97;99822.19;4975014;28;20257;-65
2022/09/24 00:15:25;;;;;;;4.20;3.60;;;;;;;13.09;64.09;99813.56;4974576;28;20270;-65
2022/09/24 00:17:53;;;;;;;4.33;4.00;;;;;;;13.09;63.78;99820.75;4974624;28;20203;-65
2022/09/24 00:20:21;;;;;;;4.83;4.33;;;;;;;13.04;64.29;99823.22;4982012;28;20305;-64
2022/09/24 00:22:48;;;;;;;4.30;4.07;;;;;;;13.00;64.78;99813.97;4994352;28;20201;-64
2022/09/24 00:27:58;;;;;;;3.90;3.70;;;;;;;12.94;65.20;99815.56;4994505;28;20194;-64
2022/09/24 00:30:25;;;;;;;4.20;3.90;;;;;;;12.97;65.10;99814.34;4993569;28;20261;-65
2022/09/24 00:32:53;;;;;;;4.00;3.80;;;;;;;12.97;64.84;99809.00;4993746;28;20262;-64
2022/09/24 00:35:21;;;;;;;5.77;3.50;;;;;;;12.93;64.51;99803.25;4993582;28;20261;-65
2022/09/24 00:37:47;;;;;;;3.90;3.70;;;;;;;12.94;63.99;99807.56;4993334;28;20198;-65
2022/09/24 00:40:14;;;;;;;4.60;3.70;;;;;;;12.92;64.64;99806.97;4993716;28;20199;-65
2022/09/24 00:42:41;;;;;;;4.07;3.77;;;;;;;12.92;64.59;99806.97;4993882;28;20744;-65
2022/09/24 00:45:09;;;;;;;3.97;3.77;;;;;;;12.89;64.64;99810.03;4993425;28;20668;-65
2022/09/24 00:47:40;;;;;;;4.20;3.90;;;;;;;12.81;64.99;99799.56;4993454;28;20195;-65
2022/09/24 00:50:15;;;;;;;3.63;3.40;;;;;;;12.74;65.49;99808.56;4993392;28;20190;-65
2022/09/24 00:52:49;;;;;;;5.80;4.10;;;;;;;12.59;66.08;99803.41;4994138;28;20270;-65
2022/09/24 00:55:18;;;;;;;4.20;3.93;;;;;;;12.53;66.04;99806.06;4993689;28;20190;-65
2022/09/24 00:57:48;;;;;;;4.73;4.20;;;;;;;12.38;66.39;99802.72;4993235;28;20205;-65
2022/09/24 01:00:16;;;;;;;4.57;4.20;;;;;;;12.35;66.93;99803.13;4993171;28;20657;-65
2022/09/24 01:02:46;;;;;;;5.17;4.80;;;;;;;12.32;66.81;99799.00;4993811;28;20261;-65
2022/09/24 01:05:14;;;;;;;4.43;4.13;;;;;;;12.29;67.41;99793.28;4993885;28;20272;-65
2022/09/24 01:07:41;;;;;;;5.73;3.90;;;;;;;12.23;67.17;99799.38;4993610;28;20261;-65
2022/09/24 01:10:09;;;;;;;4.07;3.60;;;;;;;12.16;67.40;99799.34;4993031;28;20673;-65
2022/09/24 01:12:46;;;;;;;3.73;3.53;;;;;;;12.10;67.64;99794.00;4992979;28;20703;-64
2022/09/24 01:15:22;;;;;;;4.00;3.77;;;;;;;12.09;67.56;99803.81;4992970;28;20190;-65
2022/09/24 01:17:59;;;;;;;3.73;3.47;;;;;;;12.04;67.66;99808.13;4993574;28;20287;-64
2022/09/24 01:21:04;;;;;;;3.67;3.37;;;;;;;11.95;67.96;99807.47;4985068;28;20248;-65
2022/09/24 01:23:59;;;;;;;5.30;3.77;;;;;;;11.89;68.18;99808.25;4963004;28;20623;-65
2022/09/24 01:26:45;;;;;;;8.20;4.30;;;;;;;11.84;68.38;99809.84;4973426;28;20658;-65
2022/09/24 01:29:28;;;;;;;3.97;3.57;;;;;;;11.86;68.64;99808.63;4973452;28;20186;-65
2022/09/24 01:32:02;;;;;;;4.33;3.80;;;;;;;11.81;67.95;99810.25;4973891;28;20297;-65
2022/09/24 01:34:34;;;;;;;3.80;3.60;;;;;;;11.74;68.34;99809.38;4974519;28;20304;-65
2022/09/24 01:37:03;;;;;;;3.90;3.70;;;;;;;11.70;68.36;99793.00;4973943;28;20186;-65
2022/09/24 01:39:33;;;;;;;7.23;3.77;;;;;;;11.80;68.36;99808.59;4973831;28;20249;-65
2022/09/24 01:42:00;;;;;;;5.00;3.97;;;;;;;11.83;67.97;99819.66;4973536;28;20198;-65
2022/09/24 01:44:30;;;;;;;4.47;4.10;;;;;;;11.78;68.69;99816.78;4973205;28;20197;-64
2022/09/24 01:46:58;;;;;;;5.43;4.93;;;;;;;11.81;68.52;99816.41;4973423;28;20260;-64
2022/09/24 01:49:26;;;;;;;4.13;3.93;;;;;;;11.85;68.32;99814.16;4972885;28;20208;-64
2022/09/24 01:51:58;;;;;;;4.07;3.87;;;;;;;11.87;68.07;99820.09;4972785;28;20331;-65
2022/09/24 01:54:29;;;;;;;4.77;4.37;;;;;;;11.88;67.89;99819.91;4974497;28;20253;-65
2022/09/24 01:57:02;;;;;;;4.40;4.20;;;;;;;11.87;68.51;99825.41;4973045;28;20189;-65
2022/09/24 01:59:36;;;;;;;5.23;4.20;;;;;;;11.90;67.88;99822.38;4973627;28;20198;-65
2022/09/24 02:02:07;;;;;;;5.63;4.50;;;;;;;11.87;68.27;99830.75;4973366;28;20221;-64
2022/09/24 02:04:40;;;;;;;7.93;4.23;;;;;;;11.84;68.31;99826.63;4973084;28;20735;-65
2022/09/24 02:07:12;;;;;;;4.47;4.27;;;;;;;11.81;68.65;99824.38;4973269;28;20301;-65
2022/09/24 02:09:41;;;;;;;4.20;3.90;;;;;;;11.81;68.64;99816.41;4973011;28;20196;-65
2022/09/24 02:12:11;;;;;;;4.03;3.73;;;;;;;11.86;69.02;99834.44;4973415;28;20225;-64
2022/09/24 02:14:45;;;;;;;6.17;4.00;;;;;;;11.83;68.92;99830.31;4973016;28;20686;-65
2022/09/24 02:17:13;;;;;;;6.40;4.37;;;;;;;11.78;69.70;99827.44;4973229;28;20195;-65
2022/09/24 02:19:42;;;;;;;3.93;3.70;;;;;;;11.79;69.11;99829.06;4974798;28;20665;-65
2022/09/24 02:22:12;;;;;;;4.23;4.03;;;;;;;11.75;69.37;99833.13;4992505;28;20200;-65
2022/09/24 02:24:45;;;;;;;4.00;3.77;;;;;;;11.77;68.23;99841.75;4993108;28;20244;-65
2022/09/24 02:27:12;;;;;;;4.97;4.10;;;;;;;11.71;68.51;99831.06;4992249;28;20653;-65
2022/09/24 02:29:40;;;;;;;4.20;3.90;;;;;;;11.72;68.82;99846.81;4992131;28;20197;-65
2022/09/24 02:32:10;;;;;;;4.20;3.90;;;;;;;11.67;68.82;99841.25;4991993;28;20224;-65
2022/09/24 02:34:41;;;;;;;4.40;4.00;;;;;;;11.63;68.95;99840.00;4992118;28;20664;-65
2022/09/24 02:37:10;;;;;;;3.53;3.33;;;;;;;11.56;69.06;99844.41;4992117;28;20189;-65
2022/09/24 02:39:37;;;;;;;5.43;4.00;;;;;;;11.55;69.19;99842.78;4992417;28;20630;-65
2022/09/24 02:42:06;;;;;;;3.83;3.63;;;;;;;11.53;69.91;99839.50;4992308;28;20203;-65
2022/09/24 02:44:32;;;;;;;4.40;4.10;;;;;;;11.51;69.38;99841.53;4992019;28;20740;-65
2022/09/24 02:47:00;;;;;;;4.33;4.03;;;;;;;11.50;69.18;99826.59;4992260;28;20259;-64
2022/09/24 02:49:28;;;;;;;4.77;4.37;;;;;;;11.57;69.34;99824.81;4993113;28;20197;-64
2022/09/24 02:51:55;;;;;;;4.23;4.03;;;;;;;11.60;69.15;99836.91;4992019;28;20306;-64
2022/09/24 02:54:22;;;;;;;4.83;4.30;;;;;;;11.64;68.93;99831.00;4992801;28;20182;-65
2022/09/24 02:56:49;;;;;;;4.33;4.00;;;;;;;11.67;68.86;99841.25;4992216;28;20227;-64
2022/09/24 02:59:16;;;;;;;5.00;4.00;;;;;;;11.66;68.84;99850.28;4992486;28;20275;-64
2022/09/24 03:01:43;;;;;;;3.93;3.73;;;;;;;11.67;68.86;99853.78;4993576;28;20200;-64
2022/09/24 03:04:12;;;;;;;4.73;4.10;;;;;;;11.69;69.15;99857.88;4996493;28;20627;-64
2022/09/24 03:06:39;;;;;;;4.83;4.53;;;;;;;11.68;68.95;99858.06;4995575;28;20193;-64
2022/09/24 03:09:06;;;;;;;4.63;4.17;;;;;;;11.67;69.17;99867.06;4995656;28;20251;-64
2022/09/24 03:11:34;;;;;;;4.47;4.03;;;;;;;11.64;69.71;99867.44;4995034;28;20286;-64
2022/09/24 03:14:01;;;;;;;4.13;3.93;;;;;;;11.61;69.43;99868.66;4995985;28;20291;-64
2022/09/24 03:16:27;;;;;;;4.40;4.10;;;;;;;11.60;69.58;99867.00;4995771;28;20267;-64
2022/09/24 03:18:54;;;;;;;3.87;3.67;;;;;;;11.58;68.97;99871.66;4995443;28;20204;-64
2022/09/24 03:21:22;;;;;;;5.73;4.27;;;;;;;11.55;69.48;99869.38;4979435;28;20205;-64
2022/09/24 03:23:49;;;;;;;5.60;3.77;;;;;;;11.57;69.32;99872.69;4976181;28;20586;-65
2022/09/24 03:26:17;;;;;;;4.87;4.37;;;;;;;11.51;69.58;99865.47;4975874;28;20277;-65
2022/09/24 03:28:44;;;;;;;4.23;4.00;;;;;;;11.49;69.71;99867.50;4975549;28;20395;-65
2022/09/24 03:31:11;;;;;;;4.63;4.33;;;;;;;11.46;69.90;99872.38;4975662;28;20197;-64
2022/09/24 03:33:40;;;;;;;4.70;4.40;;;;;;;11.42;69.69;99873.78;4975400;28;20314;-65
2022/09/24 03:36:09;;;;;;;5.60;4.70;;;;;;;11.30;70.83;99875.34;4976055;28;20279;-65
2022/09/24 03:38:38;;;;;;;4.43;4.13;;;;;;;11.25;71.04;99873.22;4975290;28;20198;-65
2022/09/24 03:41:06;;;;;;;3.90;3.70;;;;;;;11.16;71.28;99874.38;4976011;28;20193;-65
2022/09/24 03:43:34;;;;;;;4.60;4.23;;;;;;;11.13;71.67;99880.06;4975552;28;20206;-65
2022/09/24 03:46:01;;;;;;;4.57;4.00;;;;;;;11.11;71.08;99882.09;4975174;28;20233;-65
2022/09/24 03:48:28;;;;;;;4.60;4.30;;;;;;;11.08;71.38;99882.47;4976212;28;20203;-65
2022/09/24 03:50:55;;;;;;;4.03;3.83;;;;;;;11.10;70.61;99899.06;4976239;28;20575;-64
2022/09/24 03:53:22;;;;;;;4.00;3.70;;;;;;;11.05;70.26;99904.13;4975755;28;20229;-64
2022/09/24 03:55:54;;;;;;;4.83;4.13;;;;;;;11.04;69.94;99907.78;4975036;28;20197;-65
2022/09/24 03:58:21;;;;;;;3.83;3.63;;;;;;;10.95;70.08;99906.28;4975336;28;20195;-64
2022/09/24 04:00:47;;;;;;;4.43;3.77;;;;;;;10.94;70.43;99907.25;4974910;28;20625;-64
2022/09/24 04:03:14;;;;;;;4.50;4.20;;;;;;;10.98;70.12;99913.84;4975178;28;20205;-64
2022/09/24 04:05:42;;;;;;;4.13;3.90;;;;;;;10.91;70.06;99923.59;4974836;28;20735;-64
2022/09/24 04:08:09;;;;;;;4.30;3.93;;;;;;;10.92;69.93;99923.41;4974960;28;20196;-64
2022/09/24 04:10:35;;;;;;;4.20;4.00;;;;;;;10.88;70.02;99924.81;4975689;28;20278;-64
2022/09/24 04:13:04;;;;;;;4.67;4.27;;;;;;;10.70;70.98;99907.59;4973738;28;20708;-64
2022/09/24 04:15:32;;;;;;;4.53;4.23;;;;;;;10.84;71.00;99922.69;4975008;28;20193;-64
2022/09/24 04:17:59;;;;;;;4.37;4.00;;;;;;;10.86;70.64;99929.47;4974785;28;20255;-64
2022/09/24 04:20:28;;;;;;;4.67;4.27;;;;;;;10.86;70.90;99937.44;4982461;28;20200;-64
2022/09/24 04:22:56;;;;;;;5.90;4.33;;;;;;;10.87;70.92;99932.97;4993685;28;20207;-65
2022/09/24 04:25:24;;;;;;;4.63;4.33;;;;;;;10.92;70.22;99941.19;4994180;28;20246;-65
2022/09/24 04:27:53;;;;;;;4.80;4.50;;;;;;;10.92;70.19;99942.00;4993802;28;20199;-64
2022/09/24 04:30:23;;;;;;;5.10;4.70;;;;;;;10.91;70.63;99942.22;4994080;28;20249;-64
2022/09/24 04:32:50;;;;;;;4.60;4.30;;;;;;;10.91;70.37;99943.00;4993537;28;20731;-64
2022/09/24 04:35:18;;;;;;;7.43;4.67;;;;;;;10.86;70.31;99947.25;4994060;28;20287;-65
2022/09/24 04:37:45;;;;;;;5.93;4.70;;;;;;;10.86;70.97;99947.25;4993953;28;20208;-65
2022/09/24 04:40:12;;;;;;;4.20;3.80;;;;;;;10.99;70.78;99942.09;4994175;28;20201;-66
2022/09/24 04:42:40;;;;;;;4.57;4.27;;;;;;;11.26;70.63;99941.34;4993450;28;20668;-66
2022/09/24 04:45:08;;;;;;;4.90;4.53;;;;;;;11.61;68.69;99943.16;4993778;28;20259;-66
2022/09/24 04:47:39;;;;;;;4.60;4.30;;;;;;;11.90;68.10;99947.47;4994178;28;20205;-66
2022/09/24 04:50:08;;;;;;;5.83;4.10;;;;;;;12.06;67.08;99949.84;4994241;28;20189;-66
2022/09/24 04:52:35;;;;;;;4.50;4.13;;;;;;;12.42;65.57;99947.84;4993347;28;20245;-68
2022/09/24 04:55:02;;;;;;;5.03;4.00;;;;;;;12.81;64.19;99948.00;4994169;28;20194;-67
2022/09/24 04:57:31;;;;;;;4.47;4.17;;;;;;;13.26;62.56;99958.03;4993149;28;20619;-66
2022/09/24 04:59:58;;;;;;;8.20;4.23;;;;;;;13.57;61.28;99967.16;4993726;28;20201;-66
2022/09/24 05:02:25;;;;;;;6.93;4.40;;;;;;;13.85;59.55;99961.63;4993041;28;20207;-65
2022/09/24 05:04:53;;;;;;;4.90;4.50;;;;;;;14.31;59.02;99967.75;4993177;28;20198;-65
2022/09/24 05:07:20;;;;;;;8.30;4.20;;;;;;;14.78;57.46;99970.94;4993016;28;20242;-65
2022/09/24 05:09:46;;;;;;;7.00;3.60;;;;;;;15.58;62.11;99962.31;4993478;28;20265;-61
2022/09/24 05:12:13;;;;;;;7.07;4.53;;;;;;;16.58;57.58;99972.78;4992855;28;20630;-61
2022/09/24 05:14:40;;;;;;;9.10;3.87;;;;;;;17.81;54.23;99979.19;4993758;28;20273;-61
2022/09/24 05:17:06;;;;;;;8.53;4.27;;;;;;;18.87;46.29;100001.38;4992921;28;20245;-62
2022/09/24 05:19:33;;;;;;;3.90;3.47;;;;;;;19.65;44.37;99997.03;4992162;28;20264;-61
2022/09/24 05:22:01;;;;;;;5.13;3.60;;;;;;;20.11;42.96;99984.09;4973757;28;20195;-61
2022/09/24 05:24:28;;;;;;;6.23;3.77;;;;;;;20.17;39.44;99991.22;4973584;28;20254;-62
2022/09/24 05:27:10;;;;;;;7.40;4.00;;;;;;;20.16;40.07;99991.44;4974260;28;20637;-63
2022/09/24 05:29:37;;;;;;;11.23;3.50;;;;;;;20.52;41.84;99977.44;4973588;28;20187;-64
2022/09/24 05:32:05;;;;;;;12.90;3.67;;;;;;;21.34;40.26;99979.03;4973564;28;20203;-64
2022/09/24 05:34:33;;;;;;;6.80;3.47;;;;;;;22.17;38.72;99968.47;4973290;28;20726;-66
2022/09/24 05:37:02;;;;;;;11.37;4.23;;;;;;;22.56;37.37;99974.47;4973815;28;20251;-65
2022/09/24 05:39:29;;;;;;;5.63;3.97;;;;;;;22.01;34.78;99965.94;4973486;28;20196;-64
2022/09/24 05:41:57;;;;;;;17.50;6.63;;;;;;;22.72;36.79;99968.88;4973491;28;20195;-64
2022/09/24 05:44:23;;;;;;;12.77;6.17;;;;;;;23.17;36.99;99966.38;4973394;28;20683;-63
2022/09/24 05:46:51;;;;;;;8.20;4.60;;;;;;;23.91;34.82;99972.25;4973245;28;20250;-63
2022/09/24 05:49:18;;;;;;;8.13;4.83;;;;;;;24.41;32.78;99973.03;4973462;28;20197;-64
2022/09/24 05:51:47;;;;;;;10.20;4.00;;;;;;;24.56;31.19;99986.59;4973225;28;20249;-64
2022/09/24 05:54:15;;;;;;;8.43;3.93;;;;;;;25.04;31.05;99988.63;4973437;28;20214;-63
2022/09/24 05:56:42;;;;;;;9.30;4.00;;;;;;;25.07;30.07;99997.34;4973004;28;20198;-69
2022/09/24 05:59:09;;;;;;;10.37;3.50;;;;;;;24.92;30.88;99984.63;4972939;28;20699;-71
2022/09/24 06:01:36;;;;;;;3.30;3.10;;;;;;;25.19;29.73;99992.41;4972909;28;20560;-67
2022/09/24 06:04:06;;;;;;;8.37;3.63;;;;;;;25.30;29.67;100002.13;4973074;28;20261;-71
2022/09/24 06:06:33;;;;;;;3.53;3.30;;;;;;;25.08;30.34;99995.13;4973700;28;20213;-69
2022/09/24 06:08:59;;;;;;;5.17;3.37;;;;;;;25.02;30.30;99988.09;4973152;28;20328;-69
2022/09/24 06:11:28;;;;;;;3.20;2.90;;;;;;;25.24;30.52;99990.47;4973422;28;20209;-71
2022/09/24 06:13:55;;;;;;;7.33;3.00;;;;;;;25.69;29.89;99992.13;4972913;28;20258;-69
2022/09/24 06:16:21;;;;;;;19.43;3.30;;;;;;;25.83;29.93;99995.84;4973349;28;20191;-69
2022/09/24 06:18:48;;;;;;;3.23;2.97;;;;;;;26.06;29.37;99987.00;4972679;28;20206;-71
2022/09/24 06:21:16;;;;;;;8.00;3.03;;;;;;;26.39;28.75;99986.16;4987677;28;20226;-70
2022/09/24 06:23:44;;;;;;;6.67;3.27;;;;;;;26.26;28.27;99992.25;4991907;28;20233;-70
2022/09/24 06:26:13;;;;;;;3.20;2.90;;;;;;;26.04;28.60;99983.75;4991871;28;20231;-70
2022/09/24 06:28:41;;;;;;;4.63;3.13;;;;;;;26.14;28.84;99986.38;4991164;28;20202;-70
2022/09/24 06:31:10;;;;;;;3.37;2.77;;;;;;;26.25;28.66;99988.72;4991437;28;20194;-66
2022/09/24 06:33:37;;;;;;;5.03;3.10;;;;;;;26.59;28.19;99996.88;4989175;28;20282;-67
2022/09/24 06:36:04;;;;;;;3.03;2.73;;;;;;;26.41;26.77;99998.38;4982836;28;20191;-67
2022/09/24 06:38:31;;;;;;;7.20;3.33;;;;;;;25.94;27.57;99992.81;4984059;28;20199;-66
2022/09/24 06:41:00;;;;;;;3.93;2.50;;;;;;;25.79;28.39;100000.22;4995493;28;20195;-68
2022/09/24 06:43:27;;;;;;;4.47;2.90;;;;;;;25.86;27.97;99995.28;4983665;28;20711;-67
2022/09/24 06:45:56;;;;;;;4.23;2.70;;;;;;;25.93;28.46;100003.94;4984396;28;20195;-66
2022/09/24 06:48:25;;;;;;;3.57;2.60;;;;;;;26.17;27.96;99986.59;4975803;28;20619;-65
2022/09/24 06:50:53;;;;;;;8.33;2.40;;;;;;;26.46;26.81;100005.72;4975643;28;20231;-63
2022/09/24 06:53:21;;;;;;;2.47;2.27;;;;;;;26.59;26.46;99999.59;4994360;28;20285;-65
2022/09/24 06:55:47;;;;;;;2.80;2.67;;;;;;;26.72;25.96;99999.75;4994184;28;20790;-65
2022/09/24 06:58:19;;;;;;;3.90;2.30;;;;;;;26.76;26.14;100010.88;4983851;28;20195;-67
2022/09/24 07:00:52;;;;;;;5.07;2.50;;;;;;;26.74;26.18;100013.88;4995706;28;20246;-66
2022/09/24 07:03:21;;;;;;;4.67;2.50;;;;;;;26.90;26.44;100011.81;4975633;28;20222;-66
2022/09/24 07:05:48;;;;;;;2.77;1.90;;;;;;;26.99;25.82;100010.06;4983156;28;20281;-69
2022/09/24 07:08:15;;;;;;;1.83;1.73;;;;;;;26.80;25.92;100007.28;4994219;28;20674;-67
2022/09/24 07:10:43;;;;;;;2.00;1.63;;;;;;;26.38;25.94;100009.03;4993691;28;20281;-65
2022/09/24 07:13:11;;;;;;;2.20;2.10;;;;;;;26.02;26.46;100011.25;4994356;28;20654;-67
2022/09/24 07:15:38;;;;;;;4.70;3.13;;;;;;;25.70;27.57;100001.91;4994599;28;20201;-67
2022/09/24 07:18:05;;;;;;;8.70;2.73;;;;;;;25.35;27.56;100002.13;4994524;28;20669;-67
2022/09/24 07:20:35;;;;;;;2.50;2.07;;;;;;;25.16;28.52;99999.22;4985050;28;20198;-68
2022/09/24 07:23:03;;;;;;;5.47;2.23;;;;;;;25.42;28.86;99994.47;4975362;28;20199;-67
2022/09/24 07:25:29;;;;;;;3.00;2.00;;;;;;;25.50;27.36;100002.03;4975325;28;20330;-66
2022/09/24 07:28:01;;;;;;;3.00;2.00;;;;;;;25.67;28.08;100002.47;4974981;28;20226;-69
2022/09/24 07:30:27;;;;;;;3.90;1.70;;;;;;;25.92;27.51;100000.41;4975102;28;20188;-67
2022/09/24 07:32:55;;;;;;;2.10;1.80;;;;;;;25.97;26.90;99996.88;4975175;28;20230;-67
2022/09/24 07:35:22;;;;;;;4.67;1.90;;;;;;;25.85;26.86;99999.09;4973380;28;20257;-67
2022/09/24 07:37:56;;;;;;;2.53;2.03;;;;;;;25.63;28.07;99996.78;4975075;28;20627;-67
2022/09/24 07:40:23;;;;;;;2.63;2.17;;;;;;;25.79;27.19;99992.88;4975097;28;20250;-68
2022/09/24 07:42:50;;;;;;;2.30;1.90;;;;;;;25.99;27.19;99989.22;4975720;28;20282;-67
2022/09/24 07:45:17;;;;;;;2.37;2.13;;;;;;;26.06;26.28;100001.44;4974663;28;20663;-67
2022/09/24 07:47:43;;;;;;;6.20;1.87;;;;;;;25.89;27.79;99986.56;4974119;28;20202;-66
2022/09/24 07:50:11;;;;;;;1.70;1.57;;;;;;;26.09;26.69;99991.88;4974689;28;20206;-66
2022/09/24 07:52:38;;;;;;;2.10;2.00;;;;;;;25.84;26.78;99983.88;4975152;28;20305;-66
2022/09/24 07:55:08;;;;;;;1.87;1.77;;;;;;;25.82;27.42;99977.88;4974843;28;20231;-67
2022/09/24 07:57:34;;;;;;;2.20;1.70;;;;;;;26.16;26.86;99984.16;4974888;28;20203;-67
2022/09/24 08:00:01;;;;;;;1.90;1.80;;;;;;;26.21;26.22;99982.22;4974643;28;20191;-67
2022/09/24 08:02:28;;;;;;;2.10;2.00;;;;;;;26.41;25.73;99981.25;4974964;28;20206;-67
2022/09/24 08:04:55;;;;;;;1.57;1.47;;;;;;;26.48;26.46;99976.25;4974363;28;20196;-67
2022/09/24 08:07:22;;;;;;;2.43;1.77;;;;;;;26.18;25.37;99985.53;4974677;28;20199;-67
2022/09/24 08:09:48;;;;;;;1.80;1.70;;;;;;;26.31;26.46;99982.13;4974773;28;20195;-67
2022/09/24 08:12:16;;;;;;;2.27;2.17;;;;;;;26.51;25.22;99981.94;4974492;28;20302;-67
2022/09/24 08:14:44;;;;;;;2.40;2.20;;;;;;;26.78;25.29;99970.50;4974143;28;20659;-67
2022/09/24 08:17:10;;;;;;;1.87;1.80;;;;;;;26.89;25.67;99972.81;4974250;28;20191;-67
2022/09/24 08:19:38;;;;;;;1.77;1.77;;;;;;;27.00;25.23;99968.06;4975491;28;20206;-67
2022/09/24 08:22:07;;;;;;;1.67;1.57;;;;;;;26.72;25.04;99967.03;4993816;28;20220;-67
2022/09/24 08:24:34;;;;;;;1.50;1.50;;;;;;;26.94;25.35;99966.47;4992597;28;20265;-67
2022/09/24 08:27:01;;;;;;;3.77;2.20;;;;;;;26.93;24.46;99962.13;4993503;28;20326;-67
2022/09/24 08:29:29;;;;;;;1.57;1.57;;;;;;;27.08;24.79;99962.78;4993904;28;20194;-67
2022/09/24 08:31:56;;;;;;;1.77;1.67;;;;;;;27.10;24.77;99951.53;4990138;28;20225;-68
2022/09/24 08:34:22;;;;;;;2.07;1.80;;;;;;;26.95;23.13;99966.19;4992909;28;20226;-68
2022/09/24 08:36:52;;;;;;;4.60;4.20;;;;;;;26.63;23.81;99965.22;4993192;28;20685;-68
2022/09/24 08:39:19;;;;;;;4.73;4.47;;;;;;;26.41;23.77;99954.00;4992807;28;20202;-66
2022/09/24 08:41:55;;;;;;;2.17;1.87;;;;;;;26.66;24.71;99951.81;4993030;28;20729;-66
2022/09/24 08:47:23;;;;;;;5.93;2.23;;;;;;;26.81;22.93;99948.09;4974032;28;20312;-68
2022/09/24 08:49:57;;;;;;;2.77;1.83;;;;;;;26.90;23.09;99949.09;4972988;28;20191;-69
2022/09/24 08:52:35;;;;;;;2.67;1.77;;;;;;;26.94;22.38;99955.56;4973896;28;20231;-67
2022/09/24 08:55:07;;;;;;;2.20;1.73;;;;;;;26.78;22.71;99941.31;4973204;28;20214;-67
2022/09/24 08:57:40;;;;;;;2.80;1.50;;;;;;;26.81;22.53;99945.38;4973725;28;20196;-67
2022/09/24 09:00:14;;;;;;;1.93;1.40;;;;;;;26.85;22.91;99938.22;4973502;28;20199;-67
2022/09/24 09:02:47;;;;;;;1.60;1.60;;;;;;;27.05;22.58;99943.44;4973230;28;20283;-67
2022/09/24 09:05:26;;;;;;;1.30;1.30;;;;;;;26.84;22.88;99948.34;4973897;28;20198;-67
2022/09/24 09:08:01;;;;;;;1.13;1.13;;;;;;;26.72;20.91;99947.13;4973867;28;20214;-65
2022/09/24 09:10:31;;;;;;;2.30;1.20;;;;;;;26.64;23.74;99934.13;4973611;28;20282;-66
2022/09/24 09:13:05;;;;;;;3.60;1.60;;;;;;;26.81;22.81;99937.19;4972783;28;20191;-66
2022/09/24 09:15:37;;;;;;;1.47;1.47;;;;;;;26.91;21.58;99932.44;4973398;28;20274;-66
2022/09/24 09:18:13;;;;;;;1.50;1.40;;;;;;;26.97;22.60;99925.00;4973757;28;20570;-67
2022/09/24 09:20:42;;;;;;;1.20;1.20;;;;;;;26.72;21.56;99928.03;4982717;28;20626;-66
2022/09/24 09:23:16;;;;;;;1.27;1.20;;;;;;;26.48;21.77;99922.56;4992755;28;20191;-66
2022/09/24 09:25:51;;;;;;;1.00;1.00;;;;;;;26.54;22.57;99915.16;4992091;28;20673;-66
2022/09/24 09:28:18;;;;;;;1.57;1.47;;;;;;;26.44;22.70;99916.06;4992814;28;20245;-66
2022/09/24 09:30:57;;;;;;;1.67;1.57;;;;;;;26.46;22.01;99902.16;4992216;28;20658;-66
2022/09/24 09:33:46;;;;;;;1.70;1.60;;;;;;;26.58;21.96;99908.03;4993000;28;20586;-66
2022/09/24 09:36:37;;;;;;;2.43;1.40;;;;;;;26.72;22.61;99906.22;4992465;28;20190;-66
2022/09/24 09:39:20;;;;;;;1.43;1.33;;;;;;;26.73;23.16;99914.13;4993001;28;20277;-66
2022/09/24 09:41:53;;;;;;;1.63;1.53;;;;;;;26.93;22.44;99907.59;4992682;28;20200;-66
2022/09/24 09:44:24;;;;;;;1.40;1.33;;;;;;;26.99;22.65;99907.22;4993134;28;20194;-66
2022/09/24 09:47:00;;;;;;;1.73;1.30;;;;;;;27.12;22.32;99911.97;4992721;28;20249;-67
2022/09/24 09:49:32;;;;;;;1.47;1.40;;;;;;;26.94;21.02;99909.22;4992399;28;20225;-67
2022/09/24 09:52:04;;;;;;;7.53;1.60;;;;;;;26.77;21.57;99897.97;4991984;28;20661;-67
2022/09/24 09:54:38;;;;;;;13.40;1.90;;;;;;;26.67;21.75;99903.56;4991713;28;20709;-67
2022/09/24 09:57:06;;;;;;;4.20;1.30;;;;;;;26.59;22.69;99906.94;4991492;28;20605;-67
2022/09/24 09:59:34;;;;;;;1.30;1.30;;;;;;;26.70;21.19;99901.06;4991528;28;20692;-67
2022/09/24 10:02:09;;;;;;;1.47;1.40;;;;;;;26.90;22.06;99892.63;4991777;28;20206;-67
2022/09/24 10:04:42;;;;;;;1.60;1.50;;;;;;;27.10;21.17;99899.72;4991837;28;20256;-67
2022/09/24 10:07:10;;;;;;;1.70;1.60;;;;;;;27.09;21.89;99887.19;4991908;28;20586;-67
2022/09/24 10:09:38;;;;;;;3.33;1.70;;;;;;;27.04;21.45;99876.38;4992163;28;20194;-67
2022/09/24 10:12:17;;;;;;;2.20;1.40;;;;;;;27.06;22.33;99880.41;4993605;28;20222;-67
2022/09/24 10:14:44;;;;;;;1.63;1.53;;;;;;;26.98;20.75;99893.88;4995643;28;20223;-68
2022/09/24 10:17:17;;;;;;;1.40;1.40;;;;;;;26.67;19.87;99888.03;4995844;28;20235;-67
2022/09/24 10:19:46;;;;;;;3.80;1.57;;;;;;;26.47;21.68;99881.97;4993506;28;20190;-66
2022/09/24 10:22:20;;;;;;;3.47;1.97;;;;;;;26.43;22.25;99875.47;4976413;28;20289;-68
2022/09/24 10:24:48;;;;;;;2.80;2.60;;;;;;;26.22;21.11;99879.53;4976273;28;20282;-70
2022/09/24 10:27:23;;;;;;;3.10;2.30;;;;;;;26.28;20.82;99872.91;4976708;28;20206;-66
2022/09/24 10:32:41;;;;;;;2.33;2.03;;;;;;;25.95;21.34;99843.84;4975619;28;20685;-68
2022/09/24 10:35:22;;;;;;;2.67;2.50;;;;;;;25.91;21.48;99859.09;4985527;28;20206;-68
2022/09/24 10:37:53;;;;;;;1.93;1.70;;;;;;;26.04;21.33;99859.28;4984382;28;20195;-67
2022/09/24 10:40:26;;;;;;;2.33;1.60;;;;;;;25.99;20.98;99851.16;4995354;28;20199;-67
2022/09/24 10:42:58;;;;;;;2.33;2.13;;;;;;;26.00;21.16;99844.63;4994608;28;20650;-67
2022/09/24 10:45:36;;;;;;;1.87;1.60;;;;;;;26.19;21.25;99850.97;4994714;28;20736;-67
2022/09/24 10:48:13;;;;;;;1.47;1.27;;;;;;;26.34;21.27;99855.44;4994940;28;20191;-66
2022/09/24 10:50:46;;;;;;;1.77;1.43;;;;;;;26.36;21.39;99848.59;4993906;28;20611;-67
2022/09/24 10:53:20;;;;;;;4.80;2.10;;;;;;;25.62;21.86;99848.22;4983806;28;21034;-67
2022/09/24 10:55:59;;;;;;;6.63;2.10;;;;;;;25.50;22.40;99839.63;4989591;28;20236;-65
2022/09/24 10:58:46;;;;;;;1.60;1.50;;;;;;;24.98;22.13;99830.47;4989741;28;20199;-65
2022/09/24 11:01:18;;;;;;;1.90;1.70;;;;;;;25.14;22.43;99832.00;4987217;28;20213;-65
2022/09/24 11:04:22;;;;;;;2.17;1.93;;;;;;;25.44;22.15;99839.94;4984220;28;20206;-66
2022/09/24 11:07:18;;;;;;;1.40;1.30;;;;;;;25.23;21.46;99836.53;4934026;29;20263;-67
2022/09/24 11:09:51;;;;;;;1.93;1.70;;;;;;;25.38;21.81;99828.28;4992457;28;20608;-67
2022/09/24 11:12:27;;;;;;;3.33;1.50;;;;;;;25.48;21.43;99832.84;4990980;28;20188;-67
2022/09/24 11:15:06;;;;;;;1.37;1.20;;;;;;;25.63;20.86;99827.28;4975262;28;20253;-67
2022/09/24 11:17:37;;;;;;;1.50;1.50;;;;;;;25.71;21.02;99829.34;4993486;28;20614;-67
2022/09/24 11:20:20;;;;;;;1.93;1.50;;;;;;;25.73;21.37;99810.84;4989697;28;20192;-69
2022/09/24 11:23:02;;;;;;;1.47;1.20;;;;;;;25.64;21.18;99813.34;4973601;28;20207;-68
2022/09/24 11:25:38;;;;;;;1.50;1.40;;;;;;;25.69;21.12;99817.97;4992018;28;20194;-66
2022/09/24 11:28:22;;;;;;;2.23;1.33;;;;;;;25.64;21.16;99812.56;4989347;28;20250;-68
2022/09/24 11:30:59;;;;;;;1.40;1.30;;;;;;;25.70;21.11;99805.97;5001650;28;20205;-66
2022/09/24 11:33:39;;;;;;;1.37;1.37;;;;;;;25.67;21.85;99806.53;4982144;28;20241;-64
2022/09/24 11:36:28;;;;;;;3.53;1.70;;;;;;;25.80;24.32;99789.56;4989668;28;20206;-68
2022/09/24 11:39:18;;;;;;;10.57;1.97;;;;;;;25.58;22.16;99797.38;4990897;28;20241;-68
2022/09/24 11:41:54;;;;;;;4.83;1.30;;;;;;;25.53;21.52;99794.69;4989538;28;20195;-69
2022/09/24 11:44:51;;;;;;;1.90;1.30;;;;;;;25.56;21.62;99794.13;4988579;28;20194;-69
2022/09/24 11:47:31;;;;;;;1.73;1.60;;;;;;;25.54;20.96;99785.44;4978722;28;20214;-68
2022/09/24 11:50:21;;;;;;;5.90;1.57;;;;;;;25.63;21.21;99783.75;4994440;28;20195;-68
2022/09/24 11:52:57;;;;;;;1.80;1.70;;;;;;;25.67;21.10;99790.19;4993807;28;20694;-68
2022/09/24 11:55:31;;;;;;;1.90;1.80;;;;;;;25.69;21.20;99785.28;4993274;28;20288;-68